createdAt,value
2022-08-29T00:03:02.522Z,10.18
2022-08-29T00:13:16.521Z,8.88
2022-08-29T00:18:20.736Z,8.98
2022-08-29T00:23:23.196Z,8.85
2022-08-29T00:28:25.598Z,8.25
2022-08-29T00:33:28.239Z,9.57
2022-08-29T00:38:30.659Z,8.50
2022-08-29T00:43:36.460Z,8.80
2022-08-29T00:48:40.849Z,8.55
2022-08-29T00:53:46.578Z,9.10
2022-08-29T00:58:56.318Z,9.23
2022-08-29T01:03:59.080Z,9.82
2022-08-29T01:09:03.309Z,9.52
2022-08-29T01:14:05.766Z,9.77
2022-08-29T01:19:36.816Z,8.90
2022-08-29T01:24:50.917Z,8.93
2022-08-29T01:29:53.461Z,8.68
2022-08-29T01:34:55.918Z,8.48
2022-08-29T01:39:58.529Z,9.48
2022-08-29T01:45:02.775Z,9.75
2022-08-29T01:50:12.942Z,9.25
2022-08-29T01:55:15.273Z,9.45
2022-08-29T02:00:18.393Z,10.52
2022-08-29T02:05:23.667Z,9.32
2022-08-29T02:10:28.464Z,10.35
2022-08-29T02:15:30.973Z,9.55
2022-08-29T02:20:33.188Z,10.05
2022-08-29T02:25:44.661Z,9.25
2022-08-29T02:30:52.146Z,9.15
2022-08-29T02:36:00.191Z,9.18
2022-08-29T02:41:04.009Z,8.55
2022-08-29T02:46:06.871Z,8.75
2022-08-29T02:51:09.037Z,10.23
2022-08-29T02:56:14.306Z,8.82
2022-08-29T03:01:18.973Z,9.48
2022-08-29T03:06:22.090Z,9.68
2022-08-29T03:11:24.502Z,10.38
2022-08-29T03:16:27.308Z,9.73
2022-08-29T03:21:29.566Z,9.68
2022-08-29T03:26:36.953Z,11.35
2022-08-29T03:31:39.487Z,9.07
2022-08-29T03:36:42.097Z,8.27
2022-08-29T03:41:44.305Z,9.18
2022-08-29T03:46:47.625Z,9.07
2022-08-29T03:51:50.294Z,8.05
2022-08-29T03:56:52.577Z,8.45
2022-08-29T04:01:54.899Z,8.30
2022-08-29T04:06:57.293Z,8.85
2022-08-29T04:12:00.115Z,8.48
2022-08-29T04:17:04.519Z,8.88
2022-08-29T04:22:07.201Z,9.63
2022-08-29T04:27:09.400Z,8.55
2022-08-29T04:32:11.711Z,9.00
2022-08-29T04:37:14.068Z,8.80
2022-08-29T04:42:20.221Z,9.00
2022-08-29T04:47:22.767Z,8.10
2022-08-29T04:52:27.723Z,8.68
2022-08-29T04:57:29.938Z,9.35
2022-08-29T05:02:32.619Z,8.27
2022-08-29T05:07:35.524Z,8.63
2022-08-29T05:12:41.461Z,7.90
2022-08-29T05:17:44.597Z,8.18
2022-08-29T05:22:47.349Z,8.48
2022-08-29T05:27:50.094Z,7.60
2022-08-29T05:32:52.580Z,7.97
2022-08-29T05:37:54.916Z,6.85
2022-08-29T05:42:57.231Z,5.68
2022-08-29T05:48:04.238Z,5.22
2022-08-29T05:53:06.731Z,5.35
2022-08-29T05:58:09.517Z,5.15
2022-08-29T06:03:12.609Z,5.55
2022-08-29T06:08:14.924Z,5.30
2022-08-29T06:13:17.173Z,4.95
2022-08-29T06:18:19.641Z,4.47
2022-08-29T06:23:29.360Z,4.47
2022-08-29T06:28:34.868Z,4.53
2022-08-29T06:33:37.530Z,4.30
2022-08-29T06:38:40.282Z,4.78
2022-08-29T06:43:43.693Z,5.13
2022-08-29T06:48:45.845Z,4.78
2022-08-29T06:53:50.849Z,4.55
2022-08-29T06:58:53.164Z,6.45
2022-08-29T07:03:57.098Z,6.18
2022-08-29T07:08:59.648Z,5.65
2022-08-29T07:14:04.805Z,5.63
2022-08-29T07:19:08.897Z,6.15
2022-08-29T07:24:11.387Z,6.75
2022-08-29T07:29:18.744Z,5.97
2022-08-29T07:34:21.058Z,6.57
2022-08-29T07:39:24.297Z,5.20
2022-08-29T07:44:27.067Z,5.00
2022-08-29T07:49:41.524Z,5.20
2022-08-29T07:54:44.402Z,4.73
2022-08-29T07:59:46.778Z,5.10
2022-08-29T08:04:52.414Z,4.70
2022-08-29T08:09:54.987Z,4.97
2022-08-29T08:14:57.684Z,5.50
2022-08-29T08:19:59.825Z,4.97
2022-08-29T08:25:06.335Z,5.95
2022-08-29T08:30:09.338Z,5.47
2022-08-29T08:35:15.556Z,5.65
2022-08-29T08:40:48.450Z,5.35
2022-08-29T08:45:51.003Z,4.85
2022-08-29T08:51:23.195Z,5.32
2022-08-29T08:56:31.701Z,5.25
2022-08-29T09:01:40.248Z,5.53
2022-08-29T09:07:00.356Z,4.95
2022-08-29T09:12:20.071Z,5.05
2022-08-29T09:17:36.360Z,5.28
2022-08-29T09:22:41.325Z,5.65
2022-08-29T09:27:46.807Z,5.18
2022-08-29T09:33:08.015Z,5.05
2022-08-29T09:38:24.263Z,5.32
2022-08-29T09:43:34.038Z,5.75
2022-08-29T09:48:38.528Z,5.30
2022-08-29T09:53:41.791Z,5.95
2022-08-29T09:58:44.170Z,5.22
2022-08-29T10:04:07.552Z,5.18
2022-08-29T10:09:27.817Z,5.07
2022-08-29T10:14:36.255Z,5.47
2022-08-29T10:19:38.679Z,5.55
2022-08-29T10:24:40.798Z,5.07
2022-08-29T10:29:52.415Z,4.95
2022-08-29T10:35:32.980Z,5.40
2022-08-29T10:40:49.769Z,4.50
2022-08-29T10:46:18.065Z,4.47
2022-08-29T10:51:42.278Z,5.17
2022-08-29T10:56:46.756Z,4.63
2022-08-29T11:02:15.680Z,4.40
2022-08-29T11:07:20.963Z,4.63
2022-08-29T11:12:33.548Z,4.82
2022-08-29T11:17:41.099Z,5.18
2022-08-29T11:23:06.390Z,4.63
2022-08-29T11:28:29.257Z,5.07
2022-08-29T11:33:45.965Z,5.47
2022-08-29T11:39:23.315Z,4.60
2022-08-29T11:44:28.587Z,5.07
2022-08-29T11:49:31.448Z,5.45
2022-08-29T11:54:37.242Z,6.00
2022-08-29T11:59:57.257Z,6.07
2022-08-29T12:05:26.775Z,6.47
2022-08-29T12:10:50.523Z,6.05
2022-08-29T12:15:54.498Z,6.40
2022-08-29T12:20:57.014Z,6.25
2022-08-29T12:26:22.905Z,6.68
2022-08-29T12:31:31.234Z,6.63
2022-08-29T12:37:13.796Z,6.95
2022-08-29T12:42:44.151Z,7.25
2022-08-29T12:47:55.459Z,7.22
2022-08-29T12:53:07.626Z,6.90
2022-08-29T12:58:13.132Z,8.60
2022-08-29T13:03:21.295Z,7.85
2022-08-29T13:08:28.539Z,7.75
2022-08-29T13:13:31.113Z,7.43
2022-08-29T13:18:44.548Z,6.72
2022-08-29T13:24:19.693Z,7.65
2022-08-29T13:34:39.173Z,7.80
2022-08-29T13:39:44.976Z,6.93
2022-08-29T13:44:47.426Z,6.55
2022-08-29T13:49:50.167Z,7.30
2022-08-29T13:54:52.394Z,6.65
2022-08-29T13:59:55.526Z,7.78
2022-08-29T14:11:33.176Z,6.20
2022-08-29T14:16:35.982Z,6.30
2022-08-29T14:21:38.326Z,7.40
2022-08-29T14:26:40.557Z,6.95
2022-08-29T14:31:42.998Z,6.85
2022-08-29T14:36:48.272Z,8.27
2022-08-29T14:41:50.998Z,7.63
2022-08-29T14:46:59.063Z,10.60
2022-08-29T14:52:01.265Z,7.30
2022-08-29T14:57:03.706Z,7.70
2022-08-29T15:02:06.199Z,8.57
2022-08-29T15:07:12.650Z,8.10
2022-08-29T15:12:18.021Z,7.43
2022-08-29T15:17:23.795Z,8.10
2022-08-29T15:22:26.481Z,8.13
2022-08-29T15:27:28.617Z,8.23
2022-08-29T15:32:30.870Z,8.00
2022-08-29T15:37:34.331Z,7.75
2022-08-29T15:42:38.780Z,8.00
2022-08-29T15:47:46.126Z,7.68
2022-08-29T15:52:48.751Z,8.00
2022-08-29T15:57:52.810Z,8.93
2022-08-29T16:02:55.531Z,9.82
2022-08-29T16:07:57.856Z,9.43
2022-08-29T16:13:00.749Z,9.75
2022-08-29T16:18:03.962Z,10.50
2022-08-29T16:23:06.273Z,11.27
2022-08-29T16:28:08.996Z,10.20
2022-08-29T16:33:11.305Z,10.88
2022-08-29T16:38:13.624Z,11.93
2022-08-29T16:43:17.102Z,11.75
2022-08-29T16:48:19.571Z,12.88
2022-08-29T16:53:22.143Z,10.32
2022-08-29T16:58:42.565Z,10.85
2022-08-29T17:03:44.811Z,11.70
2022-08-29T17:08:47.124Z,10.20
2022-08-29T17:13:49.777Z,11.35
2022-08-29T17:18:52.254Z,10.68
2022-08-29T17:23:55.567Z,11.25
2022-08-29T17:28:57.957Z,11.30
2022-08-29T17:34:00.416Z,11.85
2022-08-29T17:39:03.913Z,12.82
2022-08-29T17:44:08.291Z,11.05
2022-08-29T17:49:11.746Z,11.18
2022-08-29T17:54:14.779Z,11.32
2022-08-29T17:59:18.234Z,11.45
2022-08-29T18:04:20.760Z,11.48
2022-08-29T18:09:24.340Z,12.15
2022-08-29T18:14:27.606Z,11.85
2022-08-29T18:19:29.944Z,12.60
2022-08-29T18:24:32.261Z,11.95
2022-08-29T18:29:34.663Z,20.25
2022-08-29T18:34:36.954Z,11.80
2022-08-29T18:39:40.077Z,11.98
2022-08-29T18:44:42.169Z,11.93
2022-08-29T18:50:03.105Z,12.13
2022-08-29T18:55:06.100Z,13.25
2022-08-29T19:00:10.724Z,11.13
2022-08-29T19:05:17.106Z,13.75
2022-08-29T19:10:20.188Z,12.68
2022-08-29T19:15:26.034Z,13.93
2022-08-29T19:20:47.683Z,12.82
2022-08-29T19:25:50.654Z,12.80
2022-08-29T19:30:53.281Z,19.17
2022-08-29T19:35:56.086Z,13.95
2022-08-29T19:41:01.786Z,13.55
2022-08-29T19:46:16.588Z,13.70
2022-08-29T19:51:22.060Z,10.93
2022-08-29T19:56:29.350Z,12.45
2022-08-29T20:01:31.828Z,12.95
2022-08-29T20:06:35.086Z,16.60
2022-08-29T20:11:43.870Z,15.50
2022-08-29T20:16:46.488Z,10.43
2022-08-29T20:21:50.266Z,11.45
2022-08-29T20:26:52.494Z,12.93
2022-08-29T20:31:57.731Z,12.57
2022-08-29T20:37:10.624Z,12.23
2022-08-29T20:42:15.704Z,10.93
2022-08-29T20:47:20.147Z,11.90
2022-08-29T20:52:24.449Z,11.20
2022-08-29T20:57:26.873Z,11.90
2022-08-29T21:02:47.921Z,11.30
2022-08-29T21:07:50.105Z,11.50
2022-08-29T21:12:53.055Z,11.20
2022-08-29T21:17:55.316Z,12.40
2022-08-29T21:23:04.165Z,11.63
2022-08-29T21:28:07.696Z,12.82
2022-08-29T21:33:10.469Z,11.38
2022-08-29T21:38:12.699Z,12.45
2022-08-29T21:43:14.977Z,12.50
2022-08-29T21:48:17.561Z,13.02
2022-08-29T21:53:19.641Z,13.52
2022-08-29T21:58:21.813Z,12.40
2022-08-29T22:03:25.734Z,12.57
2022-08-29T22:08:28.021Z,12.75
2022-08-29T22:13:30.464Z,12.88
2022-08-29T22:18:32.851Z,13.68
2022-08-29T22:23:35.025Z,13.95
2022-08-29T22:28:37.333Z,14.25
2022-08-29T22:33:40.303Z,11.57
2022-08-29T22:38:44.110Z,13.10
2022-08-29T22:43:46.417Z,12.32
2022-08-29T22:48:50.034Z,13.40
2022-08-29T22:54:11.866Z,12.63
2022-08-29T22:59:14.949Z,13.20
2022-08-29T23:04:17.347Z,14.10
2022-08-29T23:09:19.845Z,14.68
2022-08-29T23:14:22.578Z,14.35
2022-08-29T23:19:24.732Z,13.27
2022-08-29T23:24:26.993Z,13.55
2022-08-29T23:29:32.787Z,13.07
2022-08-29T23:34:35.526Z,14.35
2022-08-29T23:39:37.955Z,15.23
2022-08-29T23:44:40.331Z,15.23
2022-08-29T23:49:42.550Z,13.73
2022-08-29T23:54:44.645Z,14.50
